createdAt,value
2022-12-01T00:02:05.616Z,102161.47
2022-12-01T00:04:31.242Z,102167.00
2022-12-01T00:06:56.794Z,102167.00
2022-12-01T00:09:42.282Z,102167.00
2022-12-01T00:12:07.835Z,102162.31
2022-12-01T00:14:33.376Z,102155.13
2022-12-01T00:16:59.010Z,102157.88
2022-12-01T00:19:26.031Z,102157.06
2022-12-01T00:21:51.589Z,102149.59
2022-12-01T00:24:17.134Z,102158.13
2022-12-01T00:26:42.683Z,102155.13
2022-12-01T00:29:08.238Z,102157.88
2022-12-01T00:31:33.951Z,102155.13
2022-12-01T00:33:59.537Z,102157.88
2022-12-01T00:36:25.094Z,102162.56
2022-12-01T00:38:51.370Z,102155.13
2022-12-01T00:41:17.412Z,102150.69
2022-12-01T00:43:42.956Z,102157.06
2022-12-01T00:46:08.558Z,102155.13
2022-12-01T00:48:34.206Z,102157.88
2022-12-01T00:50:59.753Z,102159.56
2022-12-01T00:53:25.310Z,102152.34
2022-12-01T00:55:53.029Z,102153.47
2022-12-01T00:58:18.578Z,102153.47
2022-12-01T01:00:44.119Z,102159.56
2022-12-01T01:03:09.968Z,102159.81
2022-12-01T01:05:36.074Z,102162.56
2022-12-01T01:08:01.701Z,102161.75
2022-12-01T01:10:27.303Z,102157.06
2022-12-01T01:12:52.859Z,102165.34
2022-12-01T01:15:18.405Z,102167.00
2022-12-01T01:17:43.958Z,102173.63
2022-12-01T01:20:09.651Z,102160.88
2022-12-01T01:22:35.206Z,102169.16
2022-12-01T01:25:00.749Z,102178.31
2022-12-01T01:27:26.306Z,102181.91
2022-12-01T01:29:51.845Z,102166.41
2022-12-01T01:32:17.397Z,102179.16
2022-12-01T01:34:42.947Z,102173.63
2022-12-01T01:37:08.505Z,102177.44
2022-12-01T01:39:34.046Z,102179.16
2022-12-01T01:41:59.610Z,102187.44
2022-12-01T01:44:45.035Z,102184.91
2022-12-01T01:47:10.758Z,102183.84
2022-12-01T01:49:36.305Z,102193.19
2022-12-01T01:52:02.969Z,102186.59
2022-12-01T01:54:30.685Z,102193.19
2022-12-01T01:56:56.277Z,102192.97
2022-12-01T01:59:23.276Z,102191.25
2022-12-01T02:01:50.270Z,102190.44
2022-12-01T02:04:15.825Z,102192.34
2022-12-01T02:06:41.366Z,102191.25
2022-12-01T02:09:09.090Z,102185.72
2022-12-01T02:11:52.686Z,102190.19
2022-12-01T02:14:23.112Z,102192.13
2022-12-01T02:16:50.334Z,102194.03
2022-12-01T02:19:35.805Z,102188.50
2022-12-01T02:24:56.482Z,102189.34
2022-12-01T02:27:25.528Z,102188.50
2022-12-01T02:29:59.242Z,102192.13
2022-12-01T02:32:28.586Z,102181.06
2022-12-01T02:35:12.026Z,102181.31
2022-12-01T02:37:42.636Z,102182.97
2022-12-01T02:40:11.752Z,102187.66
2022-12-01T02:43:01.502Z,102189.34
2022-12-01T02:45:30.596Z,102177.44
2022-12-01T02:47:56.561Z,102175.78
2022-12-01T02:50:22.365Z,102185.72
2022-12-01T02:52:47.921Z,102185.72
2022-12-01T02:55:13.456Z,102182.97
2022-12-01T02:57:39.007Z,102176.88
2022-12-01T03:00:05.858Z,102178.53
2022-12-01T03:02:41.499Z,102182.97
2022-12-01T03:05:13.501Z,102179.38
2022-12-01T03:07:45.016Z,102187.66
2022-12-01T03:10:12.816Z,102184.91
2022-12-01T03:12:41.593Z,102189.59
2022-12-01T03:15:14.109Z,102187.66
2022-12-01T03:17:48.949Z,102181.31
2022-12-01T03:20:18.699Z,102181.31
2022-12-01T03:22:47.738Z,102174.94
2022-12-01T03:25:13.277Z,102184.91
2022-12-01T03:27:44.154Z,102181.31
2022-12-01T03:30:16.397Z,102178.53
2022-12-01T03:32:46.577Z,102181.31
2022-12-01T03:35:15.333Z,102176.88
2022-12-01T03:37:42.696Z,102176.63
2022-12-01T03:40:09.644Z,102188.75
2022-12-01T03:42:36.856Z,102182.41
2022-12-01T03:45:04.686Z,102179.63
2022-12-01T03:47:31.553Z,102177.44
2022-12-01T03:49:57.493Z,102182.13
2022-12-01T03:52:42.917Z,102186.00
2022-12-01T03:55:12.698Z,102186.81
2022-12-01T03:57:41.380Z,102195.13
2022-12-01T04:00:07.633Z,102190.69
2022-12-01T04:02:33.231Z,102187.09
2022-12-01T04:04:58.805Z,102189.59
2022-12-01T04:07:24.408Z,102201.47
2022-12-01T04:09:50.327Z,102192.34
2022-12-01T04:12:32.345Z,102192.63
2022-12-01T04:14:59.961Z,102197.03
2022-12-01T04:17:26.213Z,102189.59
2022-12-01T04:19:51.913Z,102190.69
2022-12-01T04:22:17.631Z,102188.75
2022-12-01T04:24:43.185Z,102196.22
2022-12-01T04:27:08.726Z,102190.44
2022-12-01T04:29:34.275Z,102193.44
2022-12-01T04:31:59.817Z,102194.28
2022-12-01T04:34:25.365Z,102187.94
2022-12-01T04:36:50.904Z,102191.53
2022-12-01T04:39:16.457Z,102187.09
2022-12-01T04:41:41.997Z,102182.41
2022-12-01T04:44:08.750Z,102182.97
2022-12-01T04:46:34.357Z,102180.47
2022-12-01T04:48:59.961Z,102185.16
2022-12-01T04:51:25.555Z,102177.97
2022-12-01T04:53:51.113Z,102179.63
2022-12-01T04:56:16.660Z,102184.31
2022-12-01T04:58:42.343Z,102178.81
2022-12-01T05:01:09.094Z,102184.91
2022-12-01T05:03:36.417Z,102189.59
2022-12-01T05:06:02.924Z,102187.66
2022-12-01T05:08:28.483Z,102186.81
2022-12-01T05:10:54.613Z,102181.56
2022-12-01T05:13:20.161Z,102180.75
2022-12-01T05:15:45.710Z,102180.47
2022-12-01T05:18:11.306Z,102182.41
2022-12-01T05:20:56.776Z,102174.38
2022-12-01T05:23:23.495Z,102187.09
2022-12-01T05:25:49.053Z,102180.75
2022-12-01T05:28:14.602Z,102182.66
2022-12-01T05:30:40.155Z,102186.25
2022-12-01T05:33:05.697Z,102184.31
2022-12-01T05:35:32.362Z,102187.09
2022-12-01T05:37:57.900Z,102190.69
2022-12-01T05:40:23.449Z,102191.78
2022-12-01T05:42:48.993Z,102198.13
2022-12-01T05:45:14.545Z,102198.97
2022-12-01T05:47:40.092Z,102196.22
2022-12-01T05:50:06.276Z,102199.22
2022-12-01T05:52:33.736Z,102202.56
2022-12-01T05:54:59.297Z,102197.31
2022-12-01T05:57:24.841Z,102195.38
2022-12-01T05:59:50.812Z,102192.63
2022-12-01T06:02:16.649Z,102191.78
2022-12-01T06:04:42.288Z,102204.75
2022-12-01T06:07:07.829Z,102212.78
2022-12-01T06:09:33.371Z,102208.34
2022-12-01T06:11:58.910Z,102211.13
2022-12-01T06:14:24.461Z,102216.63
2022-12-01T06:16:50.045Z,102217.47
2022-12-01T06:19:15.646Z,102213.88
2022-12-01T06:21:41.190Z,102220.22
2022-12-01T06:24:06.782Z,102211.94
2022-12-01T06:26:32.338Z,102223.00
2022-12-01T06:28:57.887Z,102218.31
2022-12-01T06:31:23.480Z,102221.06
2022-12-01T06:33:49.056Z,102218.03
2022-12-01T06:36:14.606Z,102222.50
2022-12-01T06:38:40.157Z,102217.81
2022-12-01T06:41:05.715Z,102220.81
2022-12-01T06:43:31.280Z,102220.81
2022-12-01T06:46:01.534Z,102222.50
2022-12-01T06:48:27.982Z,102225.28
2022-12-01T06:50:55.835Z,102229.09
2022-12-01T06:53:21.379Z,102233.38
2022-12-01T06:55:46.926Z,102219.94
2022-12-01T06:58:13.097Z,102226.19
2022-12-01T07:00:38.698Z,102226.00
2022-12-01T07:03:04.247Z,102228.31
2022-12-01T07:05:29.807Z,102236.94
2022-12-01T07:07:59.447Z,102238.13
2022-12-01T07:10:25.426Z,102234.31
2022-12-01T07:12:50.969Z,102234.03
2022-12-01T07:15:16.524Z,102237.63
2022-12-01T07:17:42.087Z,102240.13
2022-12-01T07:20:09.452Z,102233.56
2022-12-01T07:22:35.348Z,102240.75
2022-12-01T07:25:01.011Z,102245.16
2022-12-01T07:27:30.452Z,102242.66
2022-12-01T07:29:56.005Z,102243.50
2022-12-01T07:32:21.557Z,102246.00
2022-12-01T07:34:47.099Z,102250.44
2022-12-01T07:37:12.649Z,102255.97
2022-12-01T07:39:38.203Z,102246.84
2022-12-01T07:42:04.004Z,102252.38
2022-12-01T07:44:29.552Z,102246.84
2022-12-01T07:46:55.095Z,102256.81
2022-12-01T07:49:20.804Z,102254.06
2022-12-01T07:51:46.416Z,102251.03
2022-12-01T07:54:13.501Z,102255.47
2022-12-01T07:56:39.266Z,102253.53
2022-12-01T07:59:04.879Z,102255.47
2022-12-01T08:01:30.499Z,102248.03
2022-12-01T08:03:56.479Z,102253.53
2022-12-01T08:06:22.224Z,102257.97
2022-12-01T08:08:47.876Z,102257.13
2022-12-01T08:11:29.039Z,102262.66
2022-12-01T08:13:54.652Z,102270.13
2022-12-01T08:16:20.761Z,102259.06
2022-12-01T08:18:46.298Z,102268.19
2022-12-01T08:21:12.706Z,102267.34
2022-12-01T08:23:38.664Z,102266.53
2022-12-01T08:26:06.029Z,102267.63
2022-12-01T08:28:31.691Z,102270.13
2022-12-01T08:30:57.332Z,102272.88
2022-12-01T08:33:23.019Z,102273.72
2022-12-01T08:35:48.571Z,102270.13
2022-12-01T08:38:14.981Z,102274.53
2022-12-01T08:40:40.537Z,102275.50
2022-12-01T08:43:06.100Z,102275.72
2022-12-01T08:45:31.657Z,102271.28
2022-12-01T08:47:58.137Z,102277.09
2022-12-01T08:50:24.343Z,102273.47
2022-12-01T08:52:49.883Z,102279.00
2022-12-01T08:55:15.435Z,102282.84
2022-12-01T08:57:40.991Z,102275.16
2022-12-01T09:00:06.943Z,102285.09
2022-12-01T09:02:32.558Z,102272.97
2022-12-01T09:04:58.214Z,102272.38
2022-12-01T09:07:26.565Z,102284.28
2022-12-01T09:09:52.625Z,102289.53
2022-12-01T09:12:18.166Z,102288.47
2022-12-01T09:14:48.748Z,102287.63
2022-12-01T09:17:14.816Z,102285.44
2022-12-01T09:19:40.373Z,102288.94
2022-12-01T09:22:05.926Z,102288.03
2022-12-01T09:24:31.486Z,102289.22
2022-12-01T09:26:57.433Z,102293.88
2022-12-01T09:29:23.049Z,102295.06
2022-12-01T09:31:48.734Z,102300.09
2022-12-01T09:34:15.603Z,102299.84
2022-12-01T09:36:41.162Z,102296.25
2022-12-01T09:39:07.204Z,102294.56
2022-12-01T09:41:41.897Z,102303.56
2022-12-01T09:46:46.684Z,102296.44
2022-12-01T09:49:16.256Z,102291.13
2022-12-01T09:51:41.798Z,102288.63
2022-12-01T09:54:07.762Z,102296.34
2022-12-01T09:56:35.585Z,102296.34
2022-12-01T09:59:01.819Z,102289.97
2022-12-01T10:01:30.967Z,102291.66
2022-12-01T10:03:57.243Z,102279.78
2022-12-01T10:06:27.811Z,102274.25
2022-12-01T10:09:13.740Z,102283.38
2022-12-01T10:11:40.005Z,102282.28
2022-12-01T10:14:07.588Z,102276.75
2022-12-01T10:16:34.812Z,102277.84
2022-12-01T10:19:02.326Z,102285.88
2022-12-01T10:21:47.761Z,102280.34
2022-12-01T10:24:20.351Z,102276.50
2022-12-01T10:26:55.020Z,102277.31
2022-12-01T10:29:31.882Z,102281.19
2022-12-01T10:31:59.862Z,102269.88
2022-12-01T10:34:27.576Z,102267.38
2022-12-01T10:36:53.122Z,102267.97
2022-12-01T10:39:23.196Z,102268.81
2022-12-01T10:41:48.739Z,102264.13
2022-12-01T10:44:14.301Z,102271.31
2022-12-01T10:46:44.079Z,102264.13
2022-12-01T10:49:12.272Z,102261.34
2022-12-01T10:51:49.756Z,102264.13
2022-12-01T10:54:15.337Z,102262.19
2022-12-01T10:56:41.024Z,102251.13
2022-12-01T10:59:23.713Z,102255.81
2022-12-01T11:01:49.394Z,102252.22
2022-12-01T11:04:35.125Z,102255.34
2022-12-01T11:07:01.103Z,102251.84
2022-12-01T11:09:27.618Z,102251.22
2022-12-01T11:11:54.238Z,102255.34
2022-12-01T11:14:20.685Z,102252.81
2022-12-01T11:16:47.175Z,102257.50
2022-12-01T11:19:26.984Z,102255.00
2022-12-01T11:21:54.173Z,102259.41
2022-12-01T11:24:40.582Z,102253.91
2022-12-01T11:27:12.102Z,102253.06
2022-12-01T11:29:37.654Z,102251.41
2022-12-01T11:32:12.304Z,102257.75
2022-12-01T11:34:37.922Z,102257.38
2022-12-01T11:37:05.068Z,102251.84
2022-12-01T11:39:32.957Z,102253.97
2022-12-01T11:42:02.126Z,102243.41
2022-12-01T11:47:23.247Z,102250.88
2022-12-01T11:49:52.637Z,102241.41
2022-12-01T11:52:35.620Z,102251.69
2022-12-01T11:57:51.680Z,102246.78
2022-12-01T12:00:18.539Z,102244.59
2022-12-01T12:02:48.975Z,102239.59
2022-12-01T12:05:23.083Z,102246.50
2022-12-01T12:07:55.185Z,102243.16
2022-12-01T12:10:30.255Z,102237.25
2022-12-01T12:13:15.722Z,102245.34
2022-12-01T12:18:39.756Z,102241.81
2022-12-01T12:21:09.847Z,102237.13
2022-12-01T12:23:55.297Z,102238.03
2022-12-01T12:26:24.878Z,102235.00
2022-12-01T12:29:13.823Z,102228.63
2022-12-01T12:31:59.472Z,102225.59
2022-12-01T12:34:44.910Z,102231.13
2022-12-01T12:37:19.490Z,102217.31
2022-12-01T12:39:50.348Z,102229.22
2022-12-01T12:42:34.431Z,102218.16
2022-12-01T12:45:03.972Z,102219.00
2022-12-01T12:50:11.542Z,102211.78
2022-12-01T12:52:39.830Z,102204.34
2022-12-01T12:55:25.267Z,102207.09
2022-12-01T12:57:55.932Z,102204.34
2022-12-01T13:00:23.551Z,102207.09
2022-12-01T13:02:52.401Z,102203.28
2022-12-01T13:05:20.095Z,102207.69
2022-12-01T13:07:48.162Z,102195.81
2022-12-01T13:10:33.613Z,102200.25
2022-12-01T13:13:01.086Z,102191.94
2022-12-01T13:15:26.629Z,102190.84
2022-12-01T13:17:53.238Z,102197.22
2022-12-01T13:20:19.900Z,102194.72
2022-12-01T13:22:45.453Z,102196.66
2022-12-01T13:25:12.811Z,102183.94
2022-12-01T13:27:38.973Z,102187.53
2022-12-01T13:30:04.849Z,102191.13
2022-12-01T13:32:35.097Z,102184.75
2022-12-01T13:35:01.424Z,102182.81
2022-12-01T13:37:29.122Z,102173.44
2022-12-01T13:39:55.627Z,102177.31
2022-12-01T13:42:23.341Z,102180.06
2022-12-01T13:44:56.551Z,102176.47
2022-12-01T13:47:24.843Z,102177.31
2022-12-01T13:49:51.334Z,102172.00
2022-12-01T13:52:25.840Z,102175.63
2022-12-01T13:54:58.678Z,102179.47
2022-12-01T13:57:26.255Z,102176.69
2022-12-01T14:00:02.484Z,102172.09
2022-12-01T14:02:29.073Z,102178.31
2022-12-01T14:04:54.760Z,102178.19
2022-12-01T14:09:56.881Z,102179.94
2022-12-01T14:12:24.844Z,102178.31
2022-12-01T14:14:53.986Z,102180.47
2022-12-01T14:17:35.977Z,102180.06
2022-12-01T14:20:07.337Z,102183.97
2022-12-01T14:22:41.162Z,102185.97
2022-12-01T14:27:57.671Z,102177.22
2022-12-01T14:33:33.075Z,102176.97
2022-12-01T14:35:58.657Z,102174.19
2022-12-01T14:38:24.206Z,102180.56
2022-12-01T14:40:49.758Z,102184.16
2022-12-01T14:43:35.193Z,102187.75
2022-12-01T14:46:02.752Z,102185.00
2022-12-01T14:48:37.476Z,102184.16
2022-12-01T14:51:22.913Z,102180.28
2022-12-01T14:53:48.469Z,102181.16
2022-12-01T14:56:15.602Z,102173.72
2022-12-01T14:58:50.067Z,102178.13
2022-12-01T15:01:15.650Z,102182.81
2022-12-01T15:03:42.217Z,102179.78
2022-12-01T15:06:07.886Z,102175.09
2022-12-01T15:08:42.084Z,102169.84
2022-12-01T15:11:18.842Z,102167.91
2022-12-01T15:13:48.903Z,102171.50
2022-12-01T15:16:16.046Z,102173.44
2022-12-01T15:18:41.627Z,102172.59
2022-12-01T15:21:09.372Z,102172.09
2022-12-01T15:23:34.917Z,102172.34
2022-12-01T15:26:00.472Z,102165.72
2022-12-01T15:28:30.429Z,102166.81
2022-12-01T15:30:55.995Z,102170.69
2022-12-01T15:33:27.252Z,102180.63
2022-12-01T15:35:53.835Z,102177.34
2022-12-01T15:38:21.334Z,102176.59
2022-12-01T15:41:21.134Z,102169.88
2022-12-01T15:43:36.738Z,102175.84
2022-12-01T15:46:10.570Z,102170.22
2022-12-01T15:48:36.227Z,102177.69
2022-12-01T15:51:10.417Z,102186.50
2022-12-01T15:53:37.113Z,102191.59
2022-12-01T15:56:04.809Z,102191.44
2022-12-01T15:58:30.771Z,102198.97
2022-12-01T16:00:57.762Z,102200.66
2022-12-01T16:03:23.315Z,102202.91
2022-12-01T16:05:48.870Z,102205.69
2022-12-01T16:08:16.007Z,102209.84
2022-12-01T16:10:41.620Z,102210.72
2022-12-01T16:13:27.045Z,102201.56
2022-12-01T16:15:52.594Z,102197.72
2022-12-01T16:18:33.159Z,102199.66
2022-12-01T16:21:02.403Z,102190.50
2022-12-01T16:23:27.944Z,102193.88
2022-12-01T16:25:56.703Z,102183.91
2022-12-01T16:28:35.028Z,102186.31
2022-12-01T16:31:01.175Z,102188.16
2022-12-01T16:33:27.023Z,102189.25
2022-12-01T16:35:52.668Z,102187.31
2022-12-01T16:38:19.923Z,102181.69
2022-12-01T16:40:45.925Z,102182.44
2022-12-01T16:43:12.567Z,102176.19
2022-12-01T16:45:38.121Z,102173.34
2022-12-01T16:48:09.015Z,102185.31
2022-12-01T16:50:34.942Z,102182.41
2022-12-01T16:53:00.484Z,102188.50
2022-12-01T16:55:34.372Z,102188.25
2022-12-01T16:57:59.914Z,102190.75
2022-12-01T17:00:26.599Z,102184.16
2022-12-01T17:02:52.197Z,102191.09
2022-12-01T17:05:18.058Z,102197.47
2022-12-01T17:07:43.656Z,102193.59
2022-12-01T17:10:09.488Z,102193.38
2022-12-01T17:12:35.379Z,102190.84
2022-12-01T17:15:00.930Z,102195.25
2022-12-01T17:17:27.193Z,102198.63
2022-12-01T17:19:52.752Z,102197.78
2022-12-01T17:22:18.293Z,102200.28
2022-12-01T17:24:43.841Z,102204.72
2022-12-01T17:27:09.377Z,102205.81
2022-12-01T17:29:34.931Z,102199.19
2022-12-01T17:32:00.470Z,102210.25
2022-12-01T17:34:26.016Z,102211.13
2022-12-01T17:36:51.578Z,102211.69
2022-12-01T17:39:18.196Z,102219.97
2022-12-01T17:41:43.737Z,102212.53
2022-12-01T17:44:09.285Z,102216.13
2022-12-01T17:46:34.883Z,102211.44
2022-12-01T17:49:00.491Z,102215.03
2022-12-01T17:51:26.094Z,102205.91
2022-12-01T17:53:52.302Z,102210.59
2022-12-01T17:56:17.853Z,102215.03
2022-12-01T17:58:43.403Z,102212.25
2022-12-01T18:01:13.208Z,102216.94
2022-12-01T18:03:38.823Z,102212.25
2022-12-01T18:06:04.402Z,102212.53
2022-12-01T18:08:30.184Z,102219.72
2022-12-01T18:10:58.061Z,102218.88
2022-12-01T18:13:23.606Z,102213.34
2022-12-01T18:15:49.162Z,102215.28
2022-12-01T18:18:14.734Z,102225.25
2022-12-01T18:20:40.852Z,102220.53
2022-12-01T18:23:06.436Z,102216.38
2022-12-01T18:25:33.368Z,102220.81
2022-12-01T18:27:58.947Z,102218.88
2022-12-01T18:30:24.493Z,102224.66
2022-12-01T18:32:50.037Z,102226.34
2022-12-01T18:35:15.592Z,102220.25
2022-12-01T18:37:41.137Z,102217.22
2022-12-01T18:40:07.266Z,102214.72
2022-12-01T18:42:32.809Z,102213.88
2022-12-01T18:44:58.357Z,102211.94
2022-12-01T18:47:23.903Z,102217.22
2022-12-01T18:49:49.453Z,102208.34
2022-12-01T18:52:15.049Z,102208.09
2022-12-01T18:54:40.597Z,102204.50
2022-12-01T18:57:06.143Z,102206.44
2022-12-01T18:59:31.693Z,102207.50
2022-12-01T19:01:57.280Z,102205.31
2022-12-01T19:04:22.878Z,102204.50
2022-12-01T19:06:48.444Z,102202.81
2022-12-01T19:09:14.775Z,102199.81
2022-12-01T19:11:40.329Z,102204.72
2022-12-01T19:14:06.473Z,102200.06
2022-12-01T19:16:32.427Z,102200.91
2022-12-01T19:18:59.391Z,102200.91
2022-12-01T19:21:25.022Z,102200.91
2022-12-01T19:23:51.282Z,102200.06
2022-12-01T19:26:17.514Z,102197.31
2022-12-01T19:28:44.623Z,102200.91
2022-12-01T19:31:11.419Z,102188.75
2022-12-01T19:33:37.078Z,102187.09
2022-12-01T19:36:03.571Z,102181.78
2022-12-01T19:38:29.128Z,102190.91
2022-12-01T19:40:54.670Z,102191.78
2022-12-01T19:43:20.217Z,102191.78
2022-12-01T19:45:45.812Z,102194.78
2022-12-01T19:48:11.388Z,102199.19
2022-12-01T19:50:36.937Z,102199.19
2022-12-01T19:53:03.473Z,102195.59
2022-12-01T19:55:29.105Z,102200.28
2022-12-01T19:57:54.666Z,102194.78
2022-12-01T20:00:21.175Z,102191.78
2022-12-01T20:02:47.050Z,102197.53
2022-12-01T20:05:12.625Z,102192.00
2022-12-01T20:07:38.240Z,102186.47
2022-12-01T20:10:04.095Z,102190.06
2022-12-01T20:12:29.688Z,102185.66
2022-12-01T20:14:55.501Z,102187.31
2022-12-01T20:17:21.060Z,102193.09
2022-12-01T20:19:46.602Z,102192.00
2022-12-01T20:22:12.145Z,102188.41
2022-12-01T20:24:40.329Z,102190.34
2022-12-01T20:27:05.880Z,102199.47
2022-12-01T20:29:31.429Z,102200.56
2022-12-01T20:31:57.421Z,102197.78
2022-12-01T20:34:26.067Z,102204.16
2022-12-01T20:36:51.789Z,102200.56
2022-12-01T20:39:17.343Z,102201.41
2022-12-01T20:41:43.342Z,102203.31
2022-12-01T20:44:08.906Z,102196.13
2022-12-01T20:46:35.122Z,102208.00
2022-12-01T20:49:00.673Z,102206.91
2022-12-01T20:51:26.216Z,102205.25
2022-12-01T20:54:19.675Z,102205.25
2022-12-01T20:56:37.286Z,102199.72
2022-12-01T20:59:02.852Z,102202.50
2022-12-01T21:01:28.500Z,102193.38
2022-12-01T21:03:54.174Z,102199.72
2022-12-01T21:06:19.722Z,102200.56
2022-12-01T21:08:45.872Z,102212.44
2022-12-01T21:11:40.477Z,102192.50
2022-12-01T21:14:06.325Z,102196.97
2022-12-01T21:16:32.021Z,102201.66
2022-12-01T21:18:59.850Z,102198.91
2022-12-01T21:21:26.821Z,102198.63
2022-12-01T21:23:58.130Z,102201.66
2022-12-01T21:26:24.426Z,102196.97
2022-12-01T21:28:49.979Z,102194.19
2022-12-01T21:31:15.569Z,102188.69
2022-12-01T21:33:41.157Z,102185.09
2022-12-01T21:36:12.661Z,102196.13
2022-12-01T21:38:38.223Z,102191.44
2022-12-01T21:41:08.455Z,102189.75
2022-12-01T21:43:38.229Z,102182.31
2022-12-01T21:46:08.536Z,102175.09
2022-12-01T21:48:34.963Z,102173.16
2022-12-01T21:51:00.975Z,102175.94
2022-12-01T21:53:35.430Z,102179.56
2022-12-01T21:56:01.196Z,102172.34
2022-12-01T21:58:29.795Z,102175.94
2022-12-01T22:00:56.413Z,102175.09
2022-12-01T22:03:26.225Z,102173.16
2022-12-01T22:06:21.329Z,102166.81
2022-12-01T22:08:39.730Z,102163.22
2022-12-01T22:11:21.498Z,102164.03
2022-12-01T22:13:49.489Z,102170.41
2022-12-01T22:16:16.141Z,102160.44
2022-12-01T22:18:43.906Z,102146.63
2022-12-01T22:21:29.328Z,102143.88
2022-12-01T22:24:12.796Z,102150.22
2022-12-01T22:26:39.883Z,102144.69
2022-12-01T22:29:25.913Z,102143.03
2022-12-01T22:31:52.492Z,102149.41
2022-12-01T22:34:18.042Z,102139.19
2022-12-01T22:36:43.581Z,102138.34
2022-12-01T22:39:25.446Z,102140.28
2022-12-01T22:41:51.336Z,102147.72
2022-12-01T22:44:16.887Z,102148.56
2022-12-01T22:46:42.520Z,102148.56
2022-12-01T22:51:45.802Z,102149.66
2022-12-01T22:56:46.492Z,102143.31
2022-12-01T22:59:20.137Z,102142.19
2022-12-01T23:01:48.295Z,102138.59
2022-12-01T23:04:19.435Z,102140.53
2022-12-01T23:06:56.806Z,102140.53
2022-12-01T23:09:23.011Z,102141.38
2022-12-01T23:11:49.308Z,102143.31
2022-12-01T23:14:14.961Z,102136.94
2022-12-01T23:16:40.506Z,102135.00
2022-12-01T23:19:08.670Z,102138.59
2022-12-01T23:21:34.521Z,102127.81
2022-12-01T23:24:01.406Z,102124.78
2022-12-01T23:26:26.954Z,102124.78
2022-12-01T23:28:52.508Z,102125.88
2022-12-01T23:31:18.076Z,102129.47
2022-12-01T23:33:43.677Z,102114.00
2022-12-01T23:36:18.333Z,102123.13
2022-12-01T23:38:45.389Z,102120.38
2022-12-01T23:41:12.374Z,102123.13
2022-12-01T23:43:38.294Z,102125.88
2022-12-01T23:46:06.726Z,102125.88
2022-12-01T23:48:35.764Z,102120.59
2022-12-01T23:51:01.315Z,102120.38
2022-12-01T23:53:28.014Z,102114.84
2022-12-01T23:55:53.833Z,102105.72
2022-12-01T23:58:19.462Z,102102.97
